Time;durP1;ratioP1;P1;durP2;ratioP2;P2;SDS_P1;SDS_P2;PMS_P1;PMS_P2;Temp;Humidity;BMP_temperature;BMP_pressure;BME280_temperature;BME280_humidity;BME280_pressure;Samples;Min_cycle;Max_cycle;Signal;HPM_P1;HPM_P2
2022/02/16 00:00:31;;;;;;;2.78;1.80;;;;;;;7.36;86.34;99266.59;5112711;28;20078;-62
2022/02/16 00:02:58;;;;;;;4.00;2.42;;;;;;;7.47;87.17;99251.28;5112067;28;20058;-62
2022/02/16 00:05:26;;;;;;;3.05;1.70;;;;;;;7.41;86.35;99252.56;5112939;28;20055;-63
2022/02/16 00:07:53;;;;;;;2.28;1.50;;;;;;;7.43;86.29;99234.50;5112675;28;20518;-63
2022/02/16 00:10:20;;;;;;;3.00;1.67;;;;;;;7.37;87.03;99238.56;5126744;27;20047;-62
2022/02/16 00:12:48;;;;;;;2.95;1.55;;;;;;;7.37;86.58;99241.34;5120555;27;20043;-62
2022/02/16 00:15:17;;;;;;;2.10;1.50;;;;;;;7.41;86.55;99224.88;5133108;27;20054;-62
2022/02/16 00:17:44;;;;;;;2.00;1.40;;;;;;;7.37;86.06;99215.56;5132846;27;20492;-62
2022/02/16 00:20:13;;;;;;;2.80;1.65;;;;;;;7.35;86.36;99209.53;5132705;27;20051;-62
2022/02/16 00:22:41;;;;;;;2.55;1.52;;;;;;;7.44;87.77;99211.19;5132606;27;20043;-62
2022/02/16 00:25:09;;;;;;;2.55;1.63;;;;;;;7.37;87.05;99212.81;5132313;27;20051;-62
2022/02/16 00:27:36;;;;;;;2.90;1.63;;;;;;;7.39;87.25;99233.53;5124121;27;20051;-62
2022/02/16 00:30:05;;;;;;;2.90;1.40;;;;;;;7.31;85.83;99209.41;5132690;27;20055;-62
2022/02/16 00:32:34;;;;;;;1.83;1.58;;;;;;;7.39;87.00;99199.44;5132922;28;20051;-62
2022/02/16 00:35:01;;;;;;;2.25;1.75;;;;;;;7.48;87.49;99205.81;5131984;27;20055;-62
2022/02/16 00:37:29;;;;;;;1.92;1.67;;;;;;;7.43;87.21;99195.72;5132705;28;20058;-62
2022/02/16 00:39:56;;;;;;;3.03;2.30;;;;;;;7.45;88.76;99193.41;5132250;28;20074;-63
2022/02/16 00:42:23;;;;;;;2.17;1.70;;;;;;;7.35;88.24;99185.44;5119897;28;20411;-63
2022/02/16 00:44:51;;;;;;;2.60;1.65;;;;;;;7.28;89.12;99197.00;5111778;28;20467;-63
2022/02/16 00:47:18;;;;;;;2.47;1.70;;;;;;;7.24;89.24;99187.69;5126887;28;20384;-61
2022/02/16 00:49:47;;;;;;;3.03;2.13;;;;;;;7.35;90.50;99170.75;5132842;28;20051;-63
2022/02/16 00:52:14;;;;;;;3.10;2.27;;;;;;;7.35;90.01;99166.06;5132688;28;20050;-63
2022/02/16 00:54:41;;;;;;;4.18;2.28;;;;;;;7.49;90.11;99160.34;5132737;28;20415;-63
2022/02/16 00:57:09;;;;;;;2.30;1.38;;;;;;;7.38;88.79;99159.88;5121627;28;20085;-63
2022/02/16 00:59:36;;;;;;;2.15;1.63;;;;;;;7.47;90.12;99162.63;5132471;28;20043;-63
2022/02/16 01:02:04;;;;;;;2.90;1.88;;;;;;;7.49;90.55;99152.03;5131806;28;20062;-63
2022/02/16 01:04:31;;;;;;;2.10;1.70;;;;;;;7.47;89.88;99134.91;5132288;28;20058;-63
2022/02/16 01:07:00;;;;;;;3.17;1.30;;;;;;;7.46;90.05;99145.19;5132142;28;20063;-63
2022/02/16 01:09:28;;;;;;;3.45;1.92;;;;;;;7.47;90.07;99141.28;5132428;28;20047;-63
2022/02/16 01:11:55;;;;;;;1.67;1.35;;;;;;;7.49;89.11;99135.41;5129321;28;20092;-61
2022/02/16 01:14:23;;;;;;;2.15;1.55;;;;;;;7.46;87.70;99136.06;5111278;28;20048;-63
2022/02/16 01:16:50;;;;;;;3.85;2.25;;;;;;;7.56;89.23;99126.59;5114271;28;20054;-63
2022/02/16 01:19:17;;;;;;;2.22;1.50;;;;;;;7.63;88.48;99144.38;5131991;28;20051;-63
2022/02/16 01:21:45;;;;;;;2.65;1.40;;;;;;;7.58;87.74;99136.25;5132423;28;20055;-64
2022/02/16 01:24:13;;;;;;;1.80;1.30;;;;;;;7.63;88.09;99122.19;5131520;28;20061;-64
2022/02/16 01:26:41;;;;;;;1.98;1.10;;;;;;;7.57;87.40;99119.94;5124795;28;20048;-64
2022/02/16 01:29:08;;;;;;;2.38;1.00;;;;;;;7.60;87.12;99113.72;5118561;28;20051;-63
2022/02/16 01:31:36;;;;;;;1.65;1.00;;;;;;;7.76;87.24;99117.63;5117280;28;20058;-64
2022/02/16 01:34:04;;;;;;;2.45;1.30;;;;;;;7.82;88.16;99091.34;5131908;28;20047;-64
2022/02/16 01:36:31;;;;;;;1.40;1.00;;;;;;;7.73;87.11;99109.97;5132194;28;20411;-64
2022/02/16 01:38:58;;;;;;;1.88;1.10;;;;;;;7.69;86.57;99098.72;5131498;28;20058;-64
2022/02/16 01:41:27;;;;;;;3.55;1.17;;;;;;;7.64;86.73;99095.28;5129666;28;20519;-64
2022/02/16 01:43:55;;;;;;;1.83;1.10;;;;;;;7.66;88.50;99087.47;5111345;28;20451;-64
2022/02/16 01:46:22;;;;;;;1.63;1.05;;;;;;;7.73;87.53;99074.75;5118867;27;20054;-64
2022/02/16 01:48:50;;;;;;;2.10;1.10;;;;;;;7.73;88.12;99071.97;5135118;27;20054;-64
2022/02/16 01:51:17;;;;;;;2.03;1.10;;;;;;;7.62;87.18;99069.88;5135393;27;20051;-63
2022/02/16 01:53:44;;;;;;;1.50;1.02;;;;;;;7.73;86.39;99055.34;5135534;27;20058;-63
2022/02/16 01:56:13;;;;;;;2.00;1.27;;;;;;;7.77;86.78;99066.59;5135367;27;20059;-64
2022/02/16 01:58:42;;;;;;;1.48;1.02;;;;;;;7.83;86.87;99069.97;5133833;27;20051;-63
2022/02/16 02:01:10;;;;;;;1.50;0.90;;;;;;;7.84;86.79;99046.69;5135099;27;20518;-63
2022/02/16 02:03:37;;;;;;;1.70;1.00;;;;;;;7.87;86.87;99062.63;5135078;27;20051;-63
2022/02/16 02:06:04;;;;;;;1.80;0.93;;;;;;;7.82;86.19;99049.78;5135059;27;20066;-64
2022/02/16 02:08:32;;;;;;;1.60;1.08;;;;;;;7.90;86.65;99042.56;5135431;27;20047;-63
2022/02/16 02:10:59;;;;;;;1.50;0.85;;;;;;;7.86;86.37;99047.16;5134443;27;20061;-63
2022/02/16 02:13:27;;;;;;;1.77;1.23;;;;;;;7.95;85.98;99072.88;5120223;27;20047;-63
2022/02/16 02:15:57;;;;;;;1.08;0.70;;;;;;;7.91;85.27;99050.53;5115120;28;20055;-63
2022/02/16 02:18:24;;;;;;;1.23;0.90;;;;;;;7.86;85.81;99045.19;5130879;27;20048;-63
2022/02/16 02:20:53;;;;;;;1.40;0.90;;;;;;;7.73;88.46;99016.53;5135135;27;20043;-64
2022/02/16 02:23:20;;;;;;;2.07;1.00;;;;;;;7.71;86.58;99029.13;5135084;27;20407;-63
2022/02/16 02:25:49;;;;;;;1.55;0.90;;;;;;;7.83;88.25;99017.31;5134901;27;20438;-63
2022/02/16 02:28:17;;;;;;;1.90;1.00;;;;;;;7.79;87.65;99010.81;5132541;27;20059;-64
2022/02/16 02:30:47;;;;;;;2.20;0.88;;;;;;;7.76;88.09;99012.28;5134540;27;20066;-64
2022/02/16 02:33:14;;;;;;;1.63;0.90;;;;;;;7.82;88.49;98994.34;5134780;27;20510;-64
2022/02/16 02:35:42;;;;;;;1.63;0.90;;;;;;;7.79;87.46;99008.03;5134940;27;20051;-64
2022/02/16 02:38:11;;;;;;;1.30;0.90;;;;;;;7.83;87.90;98984.03;5134795;27;20510;-64
2022/02/16 02:40:38;;;;;;;1.35;0.75;;;;;;;7.86;86.53;98972.31;5134248;27;20483;-64
2022/02/16 02:43:06;;;;;;;1.50;1.00;;;;;;;7.93;86.73;98967.84;5123880;27;20058;-64
2022/02/16 02:45:33;;;;;;;1.48;1.10;;;;;;;7.99;86.46;98968.47;5134438;27;20395;-64
2022/02/16 02:48:01;;;;;;;1.58;1.05;;;;;;;7.91;86.19;98975.69;5134301;27;20062;-64
2022/02/16 02:50:28;;;;;;;2.35;1.10;;;;;;;8.00;85.97;98983.16;5134283;27;20051;-63
2022/02/16 02:52:55;;;;;;;1.98;1.00;;;;;;;8.00;86.41;98972.91;5134143;27;20061;-63
2022/02/16 02:55:26;;;;;;;1.15;0.82;;;;;;;7.93;86.33;98975.38;5134600;27;20043;-64
2022/02/16 02:57:54;;;;;;;2.22;1.00;;;;;;;8.03;85.54;98969.44;5119739;27;20427;-64
2022/02/16 03:00:21;;;;;;;1.25;0.77;;;;;;;7.98;84.40;98983.50;5117135;27;20047;-64
2022/02/16 03:02:48;;;;;;;1.90;0.82;;;;;;;7.91;83.82;98977.66;5134432;27;20051;-64
2022/02/16 03:05:16;;;;;;;1.50;1.00;;;;;;;8.06;84.99;98963.25;5131026;27;20062;-63
2022/02/16 03:07:43;;;;;;;1.42;0.82;;;;;;;8.04;85.50;98967.47;5132960;27;20484;-63
2022/02/16 03:10:13;;;;;;;1.58;1.00;;;;;;;8.14;85.36;98973.44;5134018;27;20043;-63
2022/02/16 03:12:42;;;;;;;2.70;1.20;;;;;;;8.17;85.52;98962.84;5128524;27;20396;-63
2022/02/16 03:15:10;;;;;;;1.42;0.80;;;;;;;8.02;84.85;98962.28;5113298;28;20055;-64
2022/02/16 03:17:38;;;;;;;1.58;0.95;;;;;;;8.12;85.20;98963.84;5123011;27;20055;-64
2022/02/16 03:20:07;;;;;;;1.90;1.00;;;;;;;8.03;85.46;98969.44;5133692;27;20057;-64
2022/02/16 03:22:37;;;;;;;2.33;0.90;;;;;;;8.16;85.81;98944.59;5133666;27;20047;-64
2022/02/16 03:25:04;;;;;;;;;;;;;;;8.08;84.01;98944.31;5133810;27;20047;-62
2022/02/16 03:27:32;;;;;;;1.52;0.90;;;;;;;8.06;84.06;98943.00;5129409;27;19926;-63
2022/02/16 03:30:02;;;;;;;1.20;0.85;;;;;;;8.11;85.11;98927.00;5123953;27;20052;-63
2022/02/16 03:32:30;;;;;;;1.60;0.93;;;;;;;8.24;85.16;98932.63;5133791;27;20058;-64
2022/02/16 03:34:57;;;;;;;2.10;1.10;;;;;;;8.34;85.21;98935.00;5133430;27;20180;-63
2022/02/16 03:37:25;;;;;;;1.27;0.85;;;;;;;8.34;85.62;98929.44;5133380;27;20067;-63
2022/02/16 03:39:52;;;;;;;1.13;0.75;;;;;;;8.16;83.90;98928.75;5133112;27;20051;-63
2022/02/16 03:42:20;;;;;;;1.27;0.90;;;;;;;8.22;84.92;98921.84;5131002;27;20051;-63
2022/02/16 03:44:48;;;;;;;1.35;1.00;;;;;;;8.31;84.70;98913.47;5120831;27;20054;-63
2022/02/16 03:47:17;;;;;;;1.30;0.95;;;;;;;8.33;85.41;98922.25;5133164;27;20051;-63
2022/02/16 03:49:45;;;;;;;1.40;0.75;;;;;;;8.27;84.83;98918.91;5133353;27;20051;-63
2022/02/16 03:52:12;;;;;;;1.50;1.00;;;;;;;8.30;85.02;98898.78;5132453;27;20067;-63
2022/02/16 03:54:39;;;;;;;1.85;1.00;;;;;;;8.14;84.32;98903.31;5133512;27;20043;-63
2022/02/16 03:57:07;;;;;;;2.05;0.90;;;;;;;8.31;84.96;98896.81;5130883;27;20397;-63
2022/02/16 03:59:34;;;;;;;1.88;1.10;;;;;;;8.33;85.01;98894.53;5132684;27;20047;-63
2022/02/16 04:02:02;;;;;;;1.50;1.00;;;;;;;8.39;83.99;98898.72;5133046;27;20123;-63
2022/02/16 04:04:30;;;;;;;1.63;1.00;;;;;;;8.36;84.91;98888.31;5132489;27;20513;-63
2022/02/16 04:06:58;;;;;;;1.58;0.90;;;;;;;8.43;84.21;98883.06;5117897;27;20056;-63
2022/02/16 04:09:25;;;;;;;1.70;1.10;;;;;;;8.46;84.93;98890.72;5129419;27;20047;-63
2022/02/16 04:11:53;;;;;;;1.83;1.20;;;;;;;8.48;83.91;98890.34;5132425;27;20059;-63
2022/02/16 04:14:20;;;;;;;1.60;1.10;;;;;;;8.43;84.86;98893.34;5113321;28;20062;-63
2022/02/16 04:16:47;;;;;;;2.33;1.60;;;;;;;8.52;85.61;98881.03;5119484;27;20396;-63
2022/02/16 04:19:15;;;;;;;1.50;1.20;;;;;;;8.42;85.28;98887.00;5132914;27;20050;-63
2022/02/16 04:21:44;;;;;;;1.80;1.10;;;;;;;8.44;84.33;98876.38;5132441;27;20126;-63
2022/02/16 04:24:12;;;;;;;1.50;1.13;;;;;;;8.52;84.77;98874.66;5130733;27;20051;-63
2022/02/16 04:26:39;;;;;;;1.85;1.00;;;;;;;8.50;85.29;98863.06;5132314;27;20380;-63
2022/02/16 04:29:06;;;;;;;2.17;1.50;;;;;;;8.47;85.80;98855.44;5116872;27;20062;-63
2022/02/16 04:31:33;;;;;;;1.92;1.30;;;;;;;8.45;85.28;98835.56;5124396;27;20047;-63
2022/02/16 04:34:01;;;;;;;1.80;1.00;;;;;;;8.44;84.13;98862.50;5132581;28;20411;-63
2022/02/16 04:36:28;;;;;;;1.75;1.20;;;;;;;8.47;84.89;98836.81;5132769;28;20055;-61
2022/02/16 04:38:58;;;;;;;1.60;1.10;;;;;;;8.54;84.81;98844.59;5132518;28;20054;-61
2022/02/16 04:41:26;;;;;;;1.65;1.27;;;;;;;8.46;85.08;98832.44;5132404;28;20047;-62
2022/02/16 04:43:57;;;;;;;1.75;1.20;;;;;;;8.40;84.85;98819.91;5117391;28;20047;-62
2022/02/16 04:46:24;;;;;;;1.70;1.20;;;;;;;8.32;85.06;98809.69;5111742;28;20051;-61
2022/02/16 04:48:52;;;;;;;1.75;1.20;;;;;;;8.40;85.83;98817.13;5129010;28;20051;-61
2022/02/16 04:51:19;;;;;;;2.45;1.30;;;;;;;8.41;85.40;98813.22;5132361;28;20066;-61
2022/02/16 04:53:46;;;;;;;2.22;1.40;;;;;;;8.48;85.53;98816.28;5131980;28;20047;-61
2022/02/16 04:56:16;;;;;;;1.58;1.05;;;;;;;8.47;84.92;98817.41;5132181;28;20419;-61
2022/02/16 04:58:43;;;;;;;1.50;1.08;;;;;;;8.54;85.23;98845.41;5129996;28;20043;-61
2022/02/16 05:01:10;;;;;;;3.15;1.10;;;;;;;8.54;85.42;98808.53;5131448;28;20062;-61
2022/02/16 05:03:37;;;;;;;1.75;1.00;;;;;;;8.56;85.19;98817.31;5131898;28;20063;-61
2022/02/16 05:06:05;;;;;;;1.30;1.00;;;;;;;8.62;86.16;98802.06;5130313;28;20054;-61
2022/02/16 05:08:32;;;;;;;1.38;1.00;;;;;;;8.50;86.28;98789.00;5129666;28;20051;-61
2022/02/16 05:10:59;;;;;;;2.65;1.10;;;;;;;8.44;86.07;98801.44;5131581;28;20059;-63
2022/02/16 05:13:28;;;;;;;2.50;1.00;;;;;;;8.27;87.29;98774.66;5128267;28;20052;-62
2022/02/16 05:15:58;;;;;;;1.58;1.00;;;;;;;8.27;86.89;98779.38;5120724;28;20044;-61
2022/02/16 05:18:25;;;;;;;1.30;0.88;;;;;;;8.24;87.01;98782.84;5126940;28;20070;-62
2022/02/16 05:20:52;;;;;;;1.30;0.80;;;;;;;8.26;87.42;98772.22;5132160;27;20058;-62
2022/02/16 05:23:20;;;;;;;2.67;0.90;;;;;;;8.32;87.84;98748.66;5135597;27;20047;-62
2022/02/16 05:25:47;;;;;;;1.10;0.80;;;;;;;8.25;88.44;98745.63;5136004;27;20054;-63
2022/02/16 05:28:14;;;;;;;1.38;0.90;;;;;;;8.28;89.12;98742.19;5135936;27;20047;-64
2022/02/16 05:30:43;;;;;;;1.83;1.05;;;;;;;8.29;88.77;98727.16;5118088;27;20047;-65
2022/02/16 05:33:11;;;;;;;1.40;0.77;;;;;;;8.23;89.31;98734.06;5121641;27;20119;-64
2022/02/16 05:35:41;;;;;;;1.27;0.80;;;;;;;8.15;88.74;98724.69;5137087;27;20051;-64
2022/02/16 05:38:11;;;;;;;2.60;0.80;;;;;;;8.18;90.35;98720.41;5129129;27;20065;-63
2022/02/16 05:40:38;;;;;;;2.17;0.82;;;;;;;8.12;89.66;98714.25;5118671;27;20043;-64
2022/02/16 05:43:06;;;;;;;1.27;0.82;;;;;;;8.19;89.07;98699.84;5135845;27;20416;-63
2022/02/16 05:45:33;;;;;;;1.05;0.60;;;;;;;8.26;88.55;98691.78;5134002;27;20047;-63
2022/02/16 05:48:02;;;;;;;0.90;0.60;;;;;;;8.19;88.45;98684.03;5132984;27;20062;-62
2022/02/16 05:50:29;;;;;;;1.30;0.57;;;;;;;8.32;88.69;98671.00;5135605;27;20055;-63
2022/02/16 05:52:56;;;;;;;1.30;0.60;;;;;;;8.33;86.78;98665.09;5134844;27;20043;-63
2022/02/16 05:55:24;;;;;;;0.57;0.43;;;;;;;8.30;86.40;98668.56;5135052;27;20043;-64
2022/02/16 05:57:51;;;;;;;2.13;0.80;;;;;;;8.47;87.82;98664.00;5135756;27;20047;-63
2022/02/16 06:00:19;;;;;;;1.30;0.60;;;;;;;8.48;87.88;98651.72;5128625;27;20051;-64
2022/02/16 06:02:46;;;;;;;1.67;0.50;;;;;;;8.43;86.73;98646.41;5135630;27;20054;-64
2022/02/16 06:05:15;;;;;;;0.95;0.60;;;;;;;8.45;86.68;98664.34;5134813;27;20407;-64
2022/02/16 06:07:42;;;;;;;1.77;0.80;;;;;;;8.52;87.17;98636.84;5134840;27;20055;-64
2022/02/16 06:10:10;;;;;;;1.10;0.70;;;;;;;8.49;85.60;98645.84;5134601;27;20069;-63
2022/02/16 06:12:40;;;;;;;1.90;0.70;;;;;;;8.51;86.16;98645.50;5133503;27;20047;-64
2022/02/16 06:15:08;;;;;;;1.08;0.68;;;;;;;8.65;86.85;98628.50;5125714;27;20051;-64
2022/02/16 06:17:35;;;;;;;0.95;0.60;;;;;;;8.47;85.73;98642.59;5127156;27;20065;-64
2022/02/16 06:20:03;;;;;;;1.27;0.80;;;;;;;8.58;86.46;98617.97;5120113;27;20055;-63
2022/02/16 06:22:35;;;;;;;1.10;0.60;;;;;;;8.59;85.84;98613.22;5122408;27;20055;-63
2022/02/16 06:25:03;;;;;;;0.93;0.60;;;;;;;8.53;84.76;98609.91;5130131;27;20040;-64
2022/02/16 06:27:31;;;;;;;1.10;0.60;;;;;;;8.64;85.18;98608.25;5134542;27;20062;-63
2022/02/16 06:29:58;;;;;;;2.20;0.80;;;;;;;8.67;85.29;98609.53;5130872;27;20122;-64
2022/02/16 06:32:26;;;;;;;0.98;0.55;;;;;;;8.75;84.70;98600.28;5120034;27;20491;-63
2022/02/16 06:34:53;;;;;;;1.55;0.60;;;;;;;8.69;83.97;98618.31;5123773;27;20514;-65
2022/02/16 06:37:20;;;;;;;0.90;0.40;;;;;;;8.77;82.86;98597.97;5122369;27;20051;-64
2022/02/16 06:39:49;;;;;;;0.73;0.43;;;;;;;8.80;83.58;98594.50;5135358;27;20467;-63
2022/02/16 06:42:16;;;;;;;1.00;0.53;;;;;;;8.92;83.95;98577.84;5134834;27;20483;-63
2022/02/16 06:44:44;;;;;;;0.70;0.40;;;;;;;8.94;83.28;98591.34;5133131;27;20051;-63
2022/02/16 06:47:11;;;;;;;0.57;0.40;;;;;;;8.93;84.23;98582.22;5132901;27;20054;-62
2022/02/16 06:49:39;;;;;;;1.38;0.50;;;;;;;8.98;84.63;98597.00;5133989;27;20051;-63
2022/02/16 06:52:07;;;;;;;1.13;0.60;;;;;;;8.67;87.94;98581.78;5134360;27;20055;-63
2022/02/16 06:54:34;;;;;;;1.75;1.00;;;;;;;8.38;99.09;98580.84;5133421;27;20392;-64
2022/02/16 06:57:03;;;;;;;1.67;0.98;;;;;;;8.23;100.00;98562.09;5126348;27;20407;-63
2022/02/16 06:59:31;;;;;;;1.90;0.90;;;;;;;8.12;98.64;98573.63;5133236;27;20047;-63
2022/02/16 07:01:58;;;;;;;1.27;0.80;;;;;;;8.43;96.94;98547.34;5117757;27;20052;-63
2022/02/16 07:04:27;;;;;;;1.80;0.80;;;;;;;8.50;94.69;98549.53;5130684;27;20047;-64
2022/02/16 07:06:54;;;;;;;1.13;0.68;;;;;;;8.61;93.08;98545.16;5133799;27;20054;-64
2022/02/16 07:09:21;;;;;;;0.93;0.60;;;;;;;8.59;92.16;98564.09;5133373;27;20051;-63
2022/02/16 07:11:51;;;;;;;1.20;0.80;;;;;;;8.65;91.90;98517.47;5132613;27;20055;-63
2022/02/16 07:14:20;;;;;;;;;;;;;;;8.65;88.43;98546.06;5131241;27;20058;-62
2022/02/16 07:16:47;;;;;;;0.50;0.40;;;;;;;8.69;87.66;98540.59;5117817;27;20307;-61
2022/02/16 07:19:16;;;;;;;0.80;0.50;;;;;;;8.72;88.03;98523.28;5126460;27;20504;-62
2022/02/16 07:21:43;;;;;;;1.33;0.40;;;;;;;8.62;87.52;98521.78;5130781;27;20055;-62
2022/02/16 07:24:11;;;;;;;0.70;0.40;;;;;;;8.72;87.11;98523.28;5130653;27;20058;-62
2022/02/16 07:26:39;;;;;;;1.33;0.52;;;;;;;8.73;86.93;98509.06;5131179;27;20057;-61
2022/02/16 07:29:08;;;;;;;0.45;0.30;;;;;;;8.69;86.75;98535.88;5128907;27;20054;-62
2022/02/16 07:31:41;;;;;;;1.20;0.52;;;;;;;8.90;86.90;98510.75;5123927;27;20411;-62
2022/02/16 07:34:08;;;;;;;1.88;0.50;;;;;;;9.03;86.84;98516.22;5131423;27;20051;-62
2022/02/16 07:36:35;;;;;;;1.60;0.50;;;;;;;9.04;85.79;98529.78;5131087;27;20142;-61
2022/02/16 07:39:03;;;;;;;0.70;0.43;;;;;;;9.03;86.04;98521.78;5132579;27;20074;-61
2022/02/16 07:41:31;;;;;;;1.00;0.40;;;;;;;9.05;85.80;98505.56;5130009;27;20172;-62
2022/02/16 07:43:58;;;;;;;0.68;0.50;;;;;;;9.10;86.06;98516.44;5129108;27;20503;-62
2022/02/16 07:46:26;;;;;;;0.70;0.40;;;;;;;9.07;85.43;98506.03;5121566;27;20039;-62
2022/02/16 07:48:54;;;;;;;0.63;0.40;;;;;;;9.03;85.23;98510.69;5130769;27;20062;-62
2022/02/16 07:51:22;;;;;;;1.25;0.60;;;;;;;9.13;85.90;98487.97;5129776;27;20124;-62
2022/02/16 07:53:49;;;;;;;0.70;0.40;;;;;;;9.13;85.08;98535.19;5130402;27;20047;-62
2022/02/16 07:56:17;;;;;;;0.73;0.45;;;;;;;9.04;84.08;98490.09;5130764;27;20055;-61
2022/02/16 07:58:44;;;;;;;0.40;0.30;;;;;;;9.22;84.83;98476.69;5131255;27;20070;-62
2022/02/16 08:01:12;;;;;;;0.50;0.30;;;;;;;9.35;84.65;98492.97;5125596;27;20059;-62
2022/02/16 08:03:43;;;;;;;1.92;0.55;;;;;;;9.22;84.69;98507.25;5131245;27;20039;-61
2022/02/16 08:06:14;;;;;;;0.73;0.40;;;;;;;9.27;85.14;98460.59;5130396;27;20062;-61
2022/02/16 08:08:41;;;;;;;1.13;0.47;;;;;;;9.32;83.96;98446.44;5130004;27;20062;-62
2022/02/16 08:11:09;;;;;;;0.90;0.43;;;;;;;9.33;84.36;98431.38;5130259;27;20428;-61
2022/02/16 08:13:36;;;;;;;0.50;0.30;;;;;;;9.29;84.23;98447.16;5123044;27;20047;-62
2022/02/16 08:16:07;;;;;;;0.57;0.38;;;;;;;9.51;83.55;98451.31;5114725;27;20083;-62
2022/02/16 08:18:34;;;;;;;1.00;0.30;;;;;;;9.57;83.11;98439.91;5120261;27;20062;-62
2022/02/16 08:21:01;;;;;;;0.50;0.40;;;;;;;9.69;82.00;98443.41;5124794;27;20063;-62
2022/02/16 08:23:30;;;;;;;0.68;0.40;;;;;;;9.62;82.20;98471.03;5131411;27;20468;-61
2022/02/16 08:25:57;;;;;;;0.40;0.30;;;;;;;9.50;83.33;98469.13;5130376;27;20047;-61
2022/02/16 08:28:25;;;;;;;0.68;0.30;;;;;;;9.58;83.20;98466.56;5127676;27;20043;-62
2022/02/16 08:30:52;;;;;;;8.40;0.73;;;;;;;9.01;90.75;98451.91;5128488;27;20055;-62
2022/02/16 08:33:20;;;;;;;6.38;0.63;;;;;;;8.66;99.84;98471.94;5130506;27;20051;-62
2022/02/16 08:35:47;;;;;;;2.00;0.90;;;;;;;8.60;100.00;98467.78;5130552;28;20054;-63
2022/02/16 08:38:15;;;;;;;2.15;0.63;;;;;;;8.48;100.00;98468.59;5130120;28;20589;-63
2022/02/16 08:40:43;;;;;;;0.90;0.50;;;;;;;8.49;100.00;98462.72;5130908;28;20062;-61
2022/02/16 08:43:11;;;;;;;2.47;0.50;;;;;;;8.47;100.00;98444.81;5129758;28;20061;-63
2022/02/16 08:45:38;;;;;;;2.15;0.60;;;;;;;8.50;100.00;98469.06;5128203;28;20051;-63
2022/02/16 08:48:06;;;;;;;1.58;0.63;;;;;;;8.63;100.00;98469.84;5126641;28;20058;-63
2022/02/16 08:50:34;;;;;;;0.60;0.38;;;;;;;8.59;100.00;98449.50;5119912;27;20090;-63
2022/02/16 08:53:04;;;;;;;1.15;0.60;;;;;;;8.63;100.00;98437.38;5131752;27;20084;-63
2022/02/16 08:55:31;;;;;;;2.40;0.65;;;;;;;8.72;100.00;98438.03;5121933;28;20047;-63
2022/02/16 08:58:00;;;;;;;0.68;0.40;;;;;;;8.81;100.00;98454.53;5133544;27;20395;-63
2022/02/16 09:00:28;;;;;;;1.23;0.60;;;;;;;9.10;100.00;98463.69;5130616;27;20054;-63
2022/02/16 09:02:55;;;;;;;1.23;0.80;;;;;;;9.08;95.47;98464.03;5132928;27;20058;-63
2022/02/16 09:05:22;;;;;;;0.88;0.50;;;;;;;9.06;93.43;98460.00;5134375;27;20051;-63
2022/02/16 09:07:50;;;;;;;1.10;0.50;;;;;;;9.15;93.72;98482.84;5134822;27;20051;-63
2022/02/16 09:10:17;;;;;;;0.77;0.40;;;;;;;9.21;93.57;98466.75;5133329;27;20051;-63
2022/02/16 09:12:44;;;;;;;1.15;0.57;;;;;;;9.16;93.12;98486.47;5112929;28;20044;-63
2022/02/16 09:15:13;;;;;;;1.40;0.50;;;;;;;9.11;92.11;98484.72;5107740;28;20051;-63
2022/02/16 09:17:41;;;;;;;0.90;0.50;;;;;;;9.18;92.98;98471.06;5113326;28;20047;-63
2022/02/16 09:20:09;;;;;;;0.82;0.50;;;;;;;9.33;92.68;98475.03;5114712;28;20051;-63
2022/02/16 09:22:37;;;;;;;1.55;0.85;;;;;;;9.36;92.31;98474.31;5112562;28;20055;-63
2022/02/16 09:25:05;;;;;;;1.00;0.60;;;;;;;9.34;91.50;98477.47;5113418;28;21430;-63
2022/02/16 09:27:32;;;;;;;1.70;0.70;;;;;;;9.40;91.34;98474.41;5113142;28;20062;-63
2022/02/16 09:30:00;;;;;;;1.17;0.73;;;;;;;9.48;92.00;98465.09;5111136;28;20480;-63
2022/02/16 09:32:28;;;;;;;1.20;0.70;;;;;;;9.48;91.68;98465.09;5111432;27;20051;-70
2022/02/16 09:34:56;;;;;;;1.00;0.63;;;;;;;9.43;91.36;98468.13;5110205;28;20052;-63
2022/02/16 09:37:23;;;;;;;1.10;0.80;;;;;;;9.51;91.20;98459.66;5113348;28;20052;-62
2022/02/16 09:39:51;;;;;;;1.70;0.70;;;;;;;9.50;90.61;98460.81;5113887;28;20062;-62
2022/02/16 09:42:19;;;;;;;1.35;0.90;;;;;;;9.55;91.40;98468.06;5102260;28;20522;-63
2022/02/16 09:44:51;;;;;;;2.17;0.93;;;;;;;9.59;91.19;98477.31;5106700;28;20059;-62
2022/02/16 09:47:19;;;;;;;1.52;1.10;;;;;;;9.63;91.38;98469.06;5112103;28;20066;-62
2022/02/16 09:49:48;;;;;;;1.67;1.25;;;;;;;9.71;91.57;98485.56;5112674;28;20340;-62
2022/02/16 09:52:16;;;;;;;1.90;1.03;;;;;;;9.59;91.04;98485.63;5112732;28;20055;-62
2022/02/16 09:54:44;;;;;;;2.72;1.30;;;;;;;9.80;92.14;98470.69;5112994;27;20485;-62
2022/02/16 09:57:11;;;;;;;1.77;1.23;;;;;;;9.84;91.17;98480.72;5112993;28;20059;-62
2022/02/16 09:59:39;;;;;;;3.50;1.63;;;;;;;9.97;91.32;98509.25;5104028;28;20075;-62
2022/02/16 10:02:08;;;;;;;1.70;1.42;;;;;;;10.08;91.08;98507.56;5109006;28;20051;-62
2022/02/16 10:04:36;;;;;;;1.70;1.60;;;;;;;10.18;91.09;98502.63;5113223;27;20418;-62
2022/02/16 10:07:22;;;;;;;1.67;1.45;;;;;;;10.25;90.27;98494.47;5111800;28;20066;-62
2022/02/16 10:09:49;;;;;;;1.70;1.50;;;;;;;10.21;89.98;98496.34;5112498;28;20047;-63
2022/02/16 10:12:17;;;;;;;2.00;1.50;;;;;;;10.39;90.73;98500.38;5115324;27;20086;-62
2022/02/16 10:14:45;;;;;;;2.08;1.58;;;;;;;10.56;90.09;98502.78;5123272;27;20140;-62
2022/02/16 10:17:21;;;;;;;2.00;1.40;;;;;;;10.41;89.50;98491.66;5123413;27;20051;-63
2022/02/16 10:19:50;;;;;;;1.60;1.13;;;;;;;10.37;89.13;98505.47;5132391;27;20051;-62
2022/02/16 10:22:20;;;;;;;2.10;1.90;;;;;;;10.67;90.07;98496.66;5119369;27;20048;-62
2022/02/16 10:24:48;;;;;;;1.48;1.30;;;;;;;10.68;89.50;98507.41;5125940;27;20055;-62
2022/02/16 10:27:17;;;;;;;2.08;1.50;;;;;;;10.62;89.16;98494.94;5131871;27;20478;-62
2022/02/16 10:29:46;;;;;;;1.65;1.40;;;;;;;10.75;88.35;98503.97;5122631;27;20054;-62
2022/02/16 10:32:27;;;;;;;3.25;1.60;;;;;;;10.79;88.95;98501.25;5131476;27;20495;-62
2022/02/16 10:34:56;;;;;;;1.83;1.60;;;;;;;10.84;89.19;98514.91;5131528;27;20051;-62
2022/02/16 10:37:30;;;;;;;2.03;1.60;;;;;;;10.85;88.73;98522.88;5124974;27;20415;-62
2022/02/16 10:40:14;;;;;;;2.53;1.60;;;;;;;10.75;89.25;98512.31;5133392;27;20157;-62
2022/02/16 10:42:54;;;;;;;2.72;2.00;;;;;;;10.92;89.12;98508.34;5122477;27;20062;-62
2022/02/16 10:45:22;;;;;;;2.72;2.00;;;;;;;11.00;90.04;98514.84;5116894;27;20050;-62
2022/02/16 10:47:56;;;;;;;1.92;1.48;;;;;;;11.04;89.09;98521.31;5132443;27;20048;-62
2022/02/16 10:50:26;;;;;;;3.33;2.10;;;;;;;11.09;89.44;98516.25;5131735;27;20058;-62
2022/02/16 10:52:57;;;;;;;2.63;2.10;;;;;;;11.13;90.09;98503.22;5131051;27;20051;-61
2022/02/16 10:55:44;;;;;;;2.17;1.85;;;;;;;11.21;89.31;98495.78;5131242;27;20051;-62
2022/02/16 10:58:14;;;;;;;2.38;2.10;;;;;;;11.24;89.13;98519.34;5130284;27;20439;-62
2022/02/16 11:00:43;;;;;;;3.08;2.22;;;;;;;11.36;89.38;98494.13;5119285;27;20054;-62
2022/02/16 11:03:15;;;;;;;3.05;2.13;;;;;;;11.44;88.87;98489.47;5117230;27;20069;-62
2022/02/16 11:05:45;;;;;;;2.22;2.00;;;;;;;11.50;88.95;98477.63;5113420;27;20050;-62
2022/02/16 11:08:14;;;;;;;3.50;2.70;;;;;;;11.69;89.47;98476.00;5131093;27;20054;-62
2022/02/16 11:10:42;;;;;;;;;;;;;;;11.52;87.67;98474.47;5130683;27;20051;-62
2022/02/16 11:13:11;;;;;;;3.20;2.60;;;;;;;11.70;87.24;98472.84;5130089;27;19926;-62
2022/02/16 11:15:40;;;;;;;2.33;1.70;;;;;;;11.85;87.50;98451.56;5132275;27;20142;-62
2022/02/16 11:18:12;;;;;;;2.90;2.05;;;;;;;11.90;86.09;98470.00;5119449;27;20066;-63
2022/02/16 11:20:43;;;;;;;2.65;1.90;;;;;;;11.92;86.33;98456.50;5145826;27;20042;-62
2022/02/16 11:23:13;;;;;;;2.65;2.10;;;;;;;12.05;86.18;98469.06;5124288;27;20058;-62
2022/02/16 11:25:47;;;;;;;1.70;1.48;;;;;;;12.03;85.82;98443.50;5128410;27;20078;-62
2022/02/16 11:28:25;;;;;;;1.77;1.40;;;;;;;12.02;85.95;98441.13;5129931;27;20035;-63
2022/02/16 11:30:52;;;;;;;2.38;1.42;;;;;;;12.07;86.28;98424.84;5124077;27;20055;-63
2022/02/16 11:33:21;;;;;;;1.90;1.58;;;;;;;12.21;84.66;98426.25;5117721;27;20066;-64
2022/02/16 11:35:52;;;;;;;1.70;1.27;;;;;;;12.15;84.76;98423.78;5113402;27;20070;-64
2022/02/16 11:38:22;;;;;;;2.20;1.10;;;;;;;12.11;84.95;98420.13;5129756;27;20484;-64
2022/02/16 11:40:53;;;;;;;1.95;1.40;;;;;;;12.36;85.52;98422.50;5132427;27;20059;-64
2022/02/16 11:43:23;;;;;;;3.72;1.58;;;;;;;12.29;83.71;98422.41;5118116;27;20054;-63
2022/02/16 11:46:02;;;;;;;1.52;1.20;;;;;;;12.42;83.62;98414.59;5130445;27;20493;-63